Details From KSAN - San Diego Intl
To KPWK - Chicago Executive
Flight Number -
Tags Real Decoded
Created
Modified
Stats Distance 1,707 nm / 3,162 km
Max Altitude 0 ft / 0 m
Waypoints 3
Social Downloads 1
Likes 0
Share VATSIM

Download

Looking for another format? Having issues loading an existing format? Contact us
Advertisement - Login to hide

Notes

Decoded

Route

KSAN KIND KPWK

ID Type Via Altitude Latitude Longitude Leg Dist Tot Dist Heading (true) Name
O KSAN APT - 0 ft / 0 m 32.73712˚ -117.20435˚ - 0 nm - -
KIND APT - 0 ft / 0 m 39.73423˚ -86.28884˚ 1546 nm 1546 nm 65° / 84° -
O KPWK APT - 0 ft / 0 m 42.11050˚ -87.90638˚ 160 nm 1707 nm 333° / 332° -

Altitude Profile

Advertisement - Login to hide

Weather


0- 5 10 15 20 25 30 35+ Temperature / ° C

Clouds and Precipitation
Forecast for 2017-12-13 12:00 UTC. Updated 11 minutes ago

Ground ~20,000 ft ~40,000 ft Winds

KSAN

Details ICAO KSAN (SAN)
Name San Diego Intl
Region United States
Timezone America/Los_Angeles (UTC-8.0)
Stats Elevation 17 ft / 5 m (AMSL)
Location 32.733556° -117.189658°
Runways 1
Magnetic Variation 11.525° E

METAR

KSAN 130651Z 00000KT 10SM CLR 14/M04 A3004 RMK AO2 SLP172 T01441044

Decode

TAF

TAF KSAN 130520Z 1306/1412 VRB04KT P6SM SKC FM132100 30008KT P6SM SKC FM140000 VRB04KT P6SM SKC

Decode

Departure Runways

ID Width Length Bearing (true) Bearing (mag) Surface Threshold Offset Overrun Length
09 200 ft / 61 m 9,387 ft / 2,861 m 106.07° 94.54° Asphalt 699 ft / 213 m 269 ft / 82 m
27 200 ft / 61 m 9,387 ft / 2,861 m 286.08° 274.55° Asphalt 1,811 ft / 552 m 0 ft / 0 m

KPWK

Details ICAO KPWK (PWK)
Name Chicago Executive
Region United States
Timezone America/Chicago (UTC-6.0)
Stats Elevation 647 ft / 197 m (AMSL)
Location 42.114076° -87.901353°
Runways 3
Magnetic Variation 3.757° W

METAR

KPWK 130652Z AUTO 19005KT 10SM OVC036 M06/M13 A2989 RMK AO2 SLP130 T10561128

Decode

TAF

Not found

Destination Runways

ID Width Length Bearing (true) Bearing (mag) Surface Threshold Offset Overrun Length
06 50 ft / 15 m 3,654 ft / 1,114 m 63.29° 67.05° Asphalt 354 ft / 108 m 0 ft / 0 m
12 75 ft / 23 m 4,379 ft / 1,335 m 118.06° 121.82° Asphalt 289 ft / 88 m 0 ft / 0 m
16 150 ft / 46 m 5,005 ft / 1,525 m 158.67° 162.43° Asphalt 0 ft / 0 m 0 ft / 0 m
24 50 ft / 15 m 3,654 ft / 1,114 m 243.30° 247.06° Asphalt 1,251 ft / 381 m 0 ft / 0 m
30 75 ft / 23 m 4,379 ft / 1,335 m 298.07° 301.83° Asphalt 433 ft / 132 m 0 ft / 0 m
34 150 ft / 46 m 5,005 ft / 1,525 m 338.67° 342.43° Asphalt 0 ft / 0 m 0 ft / 0 m

Approach Navaids

Runway Type Ident Frequency Range Bearing (true) Bearing (mag) Slope Elevation
16 Localiser IPWK 111.90 MHz 18 nm / 33 km 158.68° 162.43° - 642 ft / 196 m (AMSL)
16 Glidescope IPWK 111.90 MHz 10 nm / 19 km 158.67° 162.43° 3.00° 639 ft / 195 m (AMSL)